Portada
METAR-TAF:

METAR-TAF

Aeroports :

Aeroport de Rabat

Rabat, Marroc

latitud: 34-03N, longitud: 006-46W, altitud: 84 m

Observació

L'informe es va fer fa 16 minuts, a les 04:30 UTC
Vent 5 kt del Est
Temperatura 16°C
Humitat 94%
Pressió 1013 hPa
Visibilitat: 8000 m

METAR: GMME 210430Z 10005KT 8000 NSC 16/15 Q1013 NOSIG

Hora: 05:46 (04:46 UTC)

Pronòstic

L'informe es va fer fa 5 hores i 46 minuts, a les 23:00 UTC
Pronòstic vàlid del 21 a les 00 UTC al 22 a les 06 UTC
Vent 8 kt del Nord-Oest
Visibilitat: 8000 m
Núvols disperses a una alçada de 2000 ft
Núvols disperses a una alçada de 6000 ft
Cel ennuvolat a una alçada de 20000 ft
Temporalment
l' 21 a les 04 UTC al 21 a les 10 UTC
Vent 2 kt amb direcció variable
Visibilitat: 3000 m
Cel ennuvolat a una alçada de 1000 ft
Cel ennuvolat a una alçada de 1500 ft
boirina

TAF: GMME 202300Z 2100/2206 32008KT 8000 SCT020 SCT060 BKN200 TEMPO 2104/2110 VRB02KT 3000 BR BKN010 BKN015

Observacions i pronòstics meteorològics de més de 4000 aeroports (METAR i TAF).

Les estacions disponibles són els punts grocs i vermells al mapa.

Posi el ratolí al punt desitjat per veure el nom de l'estació.

Feu clic per veure les observacions i els pronòstics meteorològics.

Per canviar el mapa: feu clic els botons verds amb una creu de color negre per apropar; al botó verd amb un guió per allunyar la imatge; o en les fletxes verdes per a mapes adjacents.


METAR-TAF: